Time;durP1;ratioP1;P1;durP2;ratioP2;P2;SDS_P1;SDS_P2;PMS_P1;PMS_P2;Temp;Humidity;BMP_temperature;BMP_pressure;BME280_temperature;BME280_humidity;BME280_pressure;Samples;Min_cycle;Max_cycle;Signal;HPM_P1;HPM_P2
2023/08/19 00:02:43;;;;;;;7.45;4.28;;;19.30;1.00;;;;;;6187840;23;20025;-89
2023/08/19 00:05:30;;;;;;;7.63;4.22;;;19.30;99.90;;;;;;6186689;23;20575;-88
2023/08/19 00:08:19;;;;;;;7.05;3.88;;;19.20;1.00;;;;;;6187557;23;20029;-88
2023/08/19 00:11:06;;;;;;;9.25;3.97;;;19.10;55.30;;;;;;6187445;23;20101;-89
2023/08/19 00:13:59;;;;;;;8.50;4.75;;;19.00;99.90;;;;;;6188261;23;20032;-88
2023/08/19 00:16:46;;;;;;;6.68;4.35;;;18.90;1.00;;;;;;6185248;23;20080;-88
2023/08/19 00:19:33;;;;;;;13.13;4.40;;;18.90;99.90;;;;;;6187460;23;20036;-89
2023/08/19 00:22:20;;;;;;;6.43;3.85;;;18.80;1.00;;;;;;6184402;23;20432;-88
2023/08/19 00:25:10;;;;;;;9.27;3.67;;;18.80;1.00;;;;;;6185845;23;20394;-87
2023/08/19 00:28:04;;;;;;;6.07;3.63;;;19.00;99.90;;;;;;6188287;23;20025;-90
2023/08/19 00:30:51;;;;;;;7.65;3.65;;;19.00;99.90;;;;;;6185596;23;20039;-86
2023/08/19 00:33:41;;;;;;;8.20;3.42;;;19.00;99.90;;;;;;6185915;23;20048;-88
2023/08/19 00:36:28;;;;;;;6.45;3.15;;;19.00;99.90;;;;;;6186466;23;20028;-90
2023/08/19 00:39:18;;;;;;;7.07;3.40;;;18.90;11.10;;;;;;6189079;23;20076;-88
2023/08/19 00:42:09;;;;;;;6.70;3.60;;;18.80;15.20;;;;;;6186244;23;20391;-89
2023/08/19 00:44:57;;;;;;;9.32;3.15;;;18.80;4.30;;;;;;6186073;23;20028;-88
2023/08/19 00:47:45;;;;;;;7.97;3.88;;;18.70;99.90;;;;;;6185746;23;20029;-90
2023/08/19 00:50:33;;;;;;;8.50;3.80;;;18.60;99.90;;;;;;6187372;23;20060;-88
2023/08/19 00:53:23;;;;;;;7.68;3.33;;;18.60;1.00;;;;;;6187824;23;20040;-89
2023/08/19 00:56:15;;;;;;;8.93;3.75;;;18.60;99.90;;;;;;6186982;23;20028;-90
2023/08/19 00:59:03;;;;;;;5.07;3.40;;;18.60;99.90;;;;;;6186763;23;20021;-90
2023/08/19 01:01:50;;;;;;;9.00;3.53;;;18.60;99.90;;;;;;6185803;23;20351;-88
2023/08/19 01:04:39;;;;;;;10.65;4.68;;;18.60;1.00;;;;;;6186336;23;20025;-88
2023/08/19 01:07:58;;;;;;;8.98;4.57;;;18.70;1.00;;;;;;6188096;23;20036;-88
2023/08/19 01:10:53;;;;;;;8.88;4.45;;;18.70;1.00;;;;;;6186698;23;20028;-90
2023/08/19 01:14:00;;;;;;;11.85;4.43;;;18.70;34.80;;;;;;6187875;23;20053;-88
2023/08/19 01:16:52;;;;;;;10.85;4.07;;;18.60;99.90;;;;;;6187147;23;20025;-89
2023/08/19 01:19:41;;;;;;;9.15;3.90;;;18.70;99.90;;;;;;6187902;23;20036;-89
2023/08/19 01:22:55;;;;;;;8.13;4.63;;;18.70;99.90;;;;;;6204916;23;20084;-90
2023/08/19 01:25:42;;;;;;;6.32;4.32;;;18.50;99.90;;;;;;6193657;23;20048;-92
2023/08/19 01:28:30;;;;;;;13.00;5.18;;;18.40;99.90;;;;;;6191383;23;20053;-90
2023/08/19 01:31:17;;;;;;;7.25;3.63;;;18.40;1.00;;;;;;6191534;23;20028;-88
2023/08/19 01:34:07;;;;;;;9.43;4.35;;;18.40;99.90;;;;;;6191490;23;20028;-91
2023/08/19 01:37:00;;;;;;;4.90;3.53;;;18.50;6.90;;;;;;6187592;23;20020;-91
2023/08/19 01:39:52;;;;;;;6.13;2.90;;;18.70;1.00;;;;;;6186087;23;20032;-91
2023/08/19 01:42:43;;;;;;;10.93;3.60;;;19.00;1.00;;;;;;6187610;23;20025;-90
2023/08/19 01:45:31;;;;;;;11.07;3.70;;;19.10;99.90;;;;;;6167281;23;20029;-90
2023/08/19 01:48:18;;;;;;;7.35;4.00;;;19.10;99.90;;;;;;6185167;23;20052;-90
2023/08/19 01:51:08;;;;;;;6.38;4.13;;;19.10;99.90;;;;;;6186675;23;20032;-88
2023/08/19 01:53:55;;;;;;;4.72;3.40;;;19.00;1.00;;;;;;6190155;23;20033;-92
2023/08/19 01:56:43;;;;;;;6.38;3.72;;;18.80;99.90;;;;;;6190694;23;20025;-92
2023/08/19 01:59:30;;;;;;;5.40;3.40;;;18.70;99.90;;;;;;6189378;23;20025;-90
2023/08/19 02:02:17;;;;;;;5.47;3.45;;;18.60;99.90;;;;;;6186861;23;20293;-90
2023/08/19 02:05:12;;;;;;;8.10;3.47;;;18.50;99.90;;;;;;6186180;23;20025;-91
2023/08/19 02:08:00;;;;;;;5.55;3.80;;;18.40;99.90;;;;;;6187165;23;20029;-90
2023/08/19 02:10:47;;;;;;;8.82;3.95;;;18.40;99.90;;;;;;6185029;23;20039;-90
2023/08/19 02:13:34;;;;;;;6.50;3.80;;;18.30;99.90;;;;;;6184794;23;20409;-90
2023/08/19 02:16:21;;;;;;;5.00;3.80;;;18.20;99.90;;;;;;6183605;23;20029;-91
2023/08/19 02:19:09;;;;;;;6.18;3.63;;;18.20;1.00;;;;;;6184699;23;20020;-90
2023/08/19 02:21:57;;;;;;;7.30;3.40;;;18.10;99.90;;;;;;6185026;23;20029;-91
2023/08/19 02:24:44;;;;;;;7.65;3.80;;;18.10;1.00;;;;;;6183092;23;20610;-92
2023/08/19 02:27:32;;;;;;;10.07;4.03;;;18.10;1.00;;;;;;6183271;23;20044;-89
2023/08/19 02:30:19;;;;;;;8.35;4.30;;;18.10;99.90;;;;;;6185292;23;20424;-91
2023/08/19 02:33:07;;;;;;;8.25;4.00;;;18.10;90.00;;;;;;6184555;23;20397;-89
2023/08/19 02:35:54;;;;;;;9.85;4.55;;;18.10;1.00;;;;;;6189487;23;20029;-90
2023/08/19 02:38:42;;;;;;;9.93;3.42;;;18.10;99.90;;;;;;6193886;23;20028;-90
2023/08/19 02:41:30;;;;;;;5.57;3.88;;;18.00;99.90;;;;;;6177431;23;20025;-91
2023/08/19 02:44:18;;;;;;;8.55;3.40;;;18.20;1.00;;;;;;6197142;23;20027;-92
2023/08/19 02:47:05;;;;;;;6.57;2.85;;;18.30;99.90;;;;;;6194491;23;20025;-91
2023/08/19 02:49:52;;;;;;;11.35;3.72;;;18.30;99.90;;;;;;6186923;23;20328;-89
2023/08/19 02:52:42;;;;;;;7.50;3.83;;;18.40;95.10;;;;;;6184810;23;20087;-91
2023/08/19 02:55:29;;;;;;;8.07;4.10;;;18.30;99.90;;;;;;6190682;23;20340;-92
2023/08/19 02:58:16;;;;;;;6.50;3.83;;;18.30;99.90;;;;;;6200161;23;20036;-89
2023/08/19 03:01:03;;;;;;;8.65;4.35;;;18.20;11.00;;;;;;6200502;23;20025;-91
2023/08/19 03:03:53;;;;;;;10.30;4.00;;;18.10;1.00;;;;;;6198349;23;20425;-92
2023/08/19 03:06:41;;;;;;;7.07;4.03;;;17.90;1.00;;;;;;6200557;23;20036;-89
2023/08/19 03:09:30;;;;;;;10.77;4.10;;;17.70;99.90;;;;;;6200877;23;20332;-90
2023/08/19 03:12:17;;;;;;;10.65;5.47;;;17.70;1.00;;;;;;6192175;23;20355;-89
2023/08/19 03:15:05;;;;;;;11.27;4.63;;;17.60;1.00;;;;;;6195185;23;20421;-89
2023/08/19 03:17:52;;;;;;;9.40;4.40;;;17.50;99.90;;;;;;6188374;23;20025;-92
2023/08/19 03:20:40;;;;;;;8.32;3.95;;;17.40;99.90;;;;;;6187081;23;20077;-90
2023/08/19 03:23:30;;;;;;;10.52;4.13;;;17.30;99.90;;;;;;6189338;23;20028;-90
2023/08/19 03:26:17;;;;;;;6.78;3.88;;;17.30;99.90;;;;;;6186616;23;20048;-91
2023/08/19 03:29:06;;;;;;;11.20;4.40;;;17.20;99.90;;;;;;6186194;23;20029;-89
2023/08/19 03:31:53;;;;;;;6.97;3.88;;;17.20;99.90;;;;;;6188874;23;20043;-89
2023/08/19 03:34:40;;;;;;;6.82;3.63;;;17.20;99.90;;;;;;6185587;23;20035;-91
2023/08/19 03:37:29;;;;;;;7.53;3.90;;;17.20;99.90;;;;;;6188553;23;20447;-91
2023/08/19 03:40:17;;;;;;;8.32;3.70;;;17.30;99.90;;;;;;6186648;23;20056;-91
2023/08/19 03:43:04;;;;;;;6.07;4.25;;;17.40;99.90;;;;;;6186545;23;20059;-91
2023/08/19 03:45:55;;;;;;;11.50;4.00;;;17.40;99.90;;;;;;6188323;23;20025;-91
2023/08/19 03:48:42;;;;;;;6.20;4.10;;;17.30;99.90;;;;;;6186155;23;20030;-90
2023/08/19 03:51:32;;;;;;;8.73;4.20;;;17.20;99.90;;;;;;6186076;23;20029;-90
2023/08/19 03:54:19;;;;;;;6.25;4.15;;;17.20;99.90;;;;;;6188311;23;20036;-90
2023/08/19 03:57:07;;;;;;;10.60;5.18;;;17.30;99.90;;;;;;6186455;23;20025;-89
2023/08/19 03:59:54;;;;;;;7.07;4.20;;;17.30;99.90;;;;;;6186780;23;20017;-89
2023/08/19 04:02:47;;;;;;;7.68;4.40;;;17.20;99.90;;;;;;6185832;23;20021;-91
2023/08/19 04:05:35;;;;;;;11.70;4.28;;;17.20;99.90;;;;;;6186846;23;20021;-89
2023/08/19 04:08:24;;;;;;;6.97;4.63;;;17.20;99.90;;;;;;6185020;23;20028;-91
2023/08/19 04:11:11;;;;;;;8.80;4.13;;;17.30;99.90;;;;;;6185558;23;20029;-90
2023/08/19 04:14:01;;;;;;;10.52;5.05;;;17.40;99.90;;;;;;6185137;23;20266;-91
2023/08/19 04:16:48;;;;;;;7.85;4.43;;;17.60;99.90;;;;;;6186831;23;20032;-88
2023/08/19 04:19:38;;;;;;;10.73;4.22;;;17.60;99.90;;;;;;6187590;23;20051;-89
2023/08/19 04:22:25;;;;;;;7.85;4.38;;;17.70;99.90;;;;;;6186632;23;20028;-89
2023/08/19 04:25:12;;;;;;;11.43;5.13;;;17.70;99.90;;;;;;6187346;23;20056;-91
2023/08/19 04:28:00;;;;;;;13.20;5.00;;;17.70;99.90;;;;;;6184848;23;20043;-90
2023/08/19 04:30:47;;;;;;;10.18;4.82;;;17.60;99.90;;;;;;6185697;23;20100;-90
2023/08/19 04:33:35;;;;;;;8.85;4.72;;;17.60;99.90;;;;;;6165212;23;20036;-90
2023/08/19 04:36:23;;;;;;;12.10;4.80;;;17.60;99.90;;;;;;6188222;23;20508;-90
2023/08/19 04:39:12;;;;;;;11.45;5.00;;;17.50;99.90;;;;;;6187221;23;20105;-89
2023/08/19 04:42:00;;;;;;;8.80;5.32;;;17.50;99.90;;;;;;6185575;23;20290;-91
2023/08/19 04:44:47;;;;;;;8.43;4.45;;;17.50;99.90;;;;;;6184078;23;20025;-88
2023/08/19 04:47:34;;;;;;;9.50;5.05;;;17.60;99.90;;;;;;6184716;23;20036;-91
2023/08/19 04:50:22;;;;;;;11.07;4.82;;;17.80;98.60;;;;;;6186044;23;20163;-90
2023/08/19 04:53:11;;;;;;;10.50;4.60;;;17.90;1.00;;;;;;6166761;23;20084;-89
2023/08/19 04:56:02;;;;;;;5.88;4.40;;;18.00;1.00;;;;;;6188719;23;20044;-89
2023/08/19 04:58:52;;;;;;;7.20;3.80;;;18.00;99.90;;;;;;6188916;23;20096;-91
2023/08/19 05:01:40;;;;;;;5.30;4.38;;;18.00;1.00;;;;;;6186288;23;20025;-89
2023/08/19 05:04:27;;;;;;;8.40;4.40;;;17.90;99.90;;;;;;6188464;23;20680;-88
2023/08/19 05:07:14;;;;;;;6.95;4.25;;;17.90;99.90;;;;;;6187459;23;20029;-89
2023/08/19 05:10:02;;;;;;;11.00;4.78;;;18.00;99.90;;;;;;6186273;23;20047;-88
2023/08/19 05:12:50;;;;;;;8.35;4.90;;;18.00;99.90;;;;;;6184959;23;20450;-87
2023/08/19 05:15:44;;;;;;;10.38;4.95;;;18.00;92.60;;;;;;6185149;23;20069;-88
2023/08/19 05:18:34;;;;;;;7.75;4.88;;;18.10;1.00;;;;;;6184341;23;20025;-88
2023/08/19 05:21:21;;;;;;;14.35;5.40;;;18.20;99.90;;;;;;6187287;23;20078;-88
2023/08/19 05:24:11;;;;;;;8.82;5.07;;;18.30;65.80;;;;;;6185371;23;20310;-89
2023/08/19 05:26:59;;;;;;;8.38;4.45;;;18.40;99.90;;;;;;6186880;23;20037;-88
2023/08/19 05:29:53;;;;;;;9.27;4.32;;;18.40;1.00;;;;;;6166428;23;20044;-89
2023/08/19 05:32:42;;;;;;;9.20;4.10;;;18.50;99.90;;;;;;6188225;23;20741;-90
2023/08/19 05:35:30;;;;;;;7.20;4.53;;;18.60;70.80;;;;;;6186202;23;20032;-89
2023/08/19 05:38:17;;;;;;;14.85;5.03;;;18.60;99.90;;;;;;6185773;23;20035;-90
2023/08/19 05:41:04;;;;;;;8.25;4.38;;;18.70;99.90;;;;;;6186515;23;20123;-91
2023/08/19 05:43:54;;;;;;;9.38;4.60;;;18.80;99.90;;;;;;6183947;23;20036;-90
2023/08/19 05:46:41;;;;;;;16.35;4.93;;;18.90;1.00;;;;;;6191902;23;20417;-90
2023/08/19 05:49:30;;;;;;;14.25;5.65;;;19.10;99.90;;;;;;6197131;23;20561;-90
2023/08/19 05:52:17;;;;;;;9.23;4.95;;;19.30;99.90;;;;;;6198341;23;20458;-89
2023/08/19 05:55:05;;;;;;;9.23;4.35;;;19.50;1.00;;;;;;6194945;23;20036;-92
2023/08/19 05:57:52;;;;;;;10.00;4.78;;;19.80;99.90;;;;;;6194659;23;20035;-90
2023/08/19 06:00:42;;;;;;;7.45;4.35;;;20.00;99.90;;;;;;6185547;23;20029;-92
2023/08/19 06:03:33;;;;;;;11.35;4.65;;;20.30;1.80;;;;;;6168575;23;20036;-92
2023/08/19 06:06:32;;;;;;;11.18;5.07;;;20.60;99.90;;;;;;6188901;23;20024;-93
2023/08/19 06:16:50;;;;;;;10.00;4.82;;;20.90;16.10;;;;;;6084848;23;20117;-93
2023/08/19 06:19:51;;;;;;;;;;;;;;;;;;;;;
2023/08/19 06:23:02;;;;;;;8.05;4.05;;;20.90;1.00;;;;;;6191118;23;20025;-92
2023/08/19 06:26:20;;;;;;;9.65;4.85;;;21.00;1.00;;;;;;6190747;23;20025;-94
2023/08/19 06:29:41;;;;;;;11.55;4.80;;;21.10;1.00;;;;;;6190927;23;20078;-92
2023/08/19 06:32:46;;;;;;;12.32;5.75;;;21.30;1.00;;;;;;6188074;23;20027;-93
2023/08/19 06:35:36;;;;;;;13.82;4.90;;;21.60;99.90;;;;;;6189866;23;20021;-91
2023/08/19 06:38:28;;;;;;;10.05;4.40;;;21.70;99.90;;;;;;6190003;23;20092;-92
2023/08/19 06:41:33;;;;;;;16.65;4.93;;;21.80;99.90;;;;;;6187350;23;20163;-92
2023/08/19 06:44:40;;;;;;;12.38;4.97;;;22.00;99.90;;;;;;6195424;23;20029;-93
2023/08/19 06:47:31;;;;;;;10.82;4.90;;;22.10;99.90;;;;;;6196451;23;20033;-92
2023/08/19 06:50:21;;;;;;;15.68;4.43;;;22.20;99.90;;;;;;6195287;23;20025;-89
2023/08/19 06:53:10;;;;;;;12.65;4.47;;;22.30;99.90;;;;;;6191755;23;20456;-89
2023/08/19 06:56:28;;;;;;;7.30;4.25;;;22.40;99.90;;;;;;6192629;23;20332;-86
2023/08/19 06:59:26;;;;;;;12.73;5.03;;;22.60;99.90;;;;;;6190993;23;20421;-89
2023/08/19 07:02:17;;;;;;;10.18;3.95;;;22.80;99.90;;;;;;6193625;23;20137;-89
2023/08/19 07:05:26;;;;;;;7.50;4.53;;;22.90;99.90;;;;;;6190646;23;20039;-89
2023/08/19 07:08:16;;;;;;;6.97;3.90;;;23.00;99.90;;;;;;6192469;23;20047;-87
2023/08/19 07:11:07;;;;;;;7.10;3.95;;;23.10;99.90;;;;;;6190566;23;20025;-91
2023/08/19 07:13:57;;;;;;;9.15;4.18;;;23.60;19.60;;;;;;6193994;23;20385;-90
2023/08/19 07:16:48;;;;;;;9.23;4.00;;;23.90;1.00;;;;;;6191569;23;20095;-90
2023/08/19 07:19:43;;;;;;;11.80;3.70;;;24.20;1.00;;;;;;6189395;23;20037;-91
2023/08/19 07:22:32;;;;;;;9.15;4.78;;;24.60;1.00;;;;;;6192032;23;20040;-91
2023/08/19 07:25:22;;;;;;;12.52;3.80;;;24.90;1.00;;;;;;6191168;23;20105;-90
2023/08/19 07:28:13;;;;;;;6.43;3.67;;;25.20;1.00;;;;;;6197974;23;20036;-90
2023/08/19 07:31:05;;;;;;;8.32;3.75;;;25.30;99.90;;;;;;6203711;23;20084;-90
2023/08/19 07:33:53;;;;;;;7.85;3.25;;;25.50;99.90;;;;;;6206810;23;20038;-88
2023/08/19 07:36:41;;;;;;;7.68;3.20;;;25.80;99.90;;;;;;6212423;23;20017;-85
2023/08/19 07:39:28;;;;;;;8.25;3.50;;;25.90;99.90;;;;;;6208577;23;20025;-90
2023/08/19 07:42:19;;;;;;;7.53;3.42;;;26.20;99.90;;;;;;6210059;23;20013;-85
2023/08/19 07:45:07;;;;;;;10.45;3.50;;;26.90;99.90;;;;;;6207620;23;20029;-91
2023/08/19 07:47:56;;;;;;;10.73;4.20;;;27.70;99.90;;;;;;6201532;23;20033;-89
2023/08/19 07:50:55;;;;;;;6.00;3.55;;;28.20;99.90;;;;;;6203271;23;20028;-91
2023/08/19 07:58:22;;;;;;;9.30;3.53;;;28.20;99.90;;;;;;6014593;23;20987;-93
2023/08/19 08:14:45;;;;;;;;;;;;;;;;;;;;;
2023/08/19 08:40:42;;;;;;;;;;;;;;;;;;;;;
2023/08/19 08:56:38;;;;;;;5.78;3.05;;;33.30;24.00;;;;;;6048614;23;20031;-94
2023/08/19 08:59:46;;;;;;;8.38;3.15;;;34.30;14.40;;;;;;5886681;24;20032;-92
2023/08/19 09:15:28;;;;;;;6.97;2.60;;;33.50;1.00;;;;;;6065266;23;20025;-93
2023/08/19 09:18:28;;;;;;;7.47;2.78;;;33.90;1.00;;;;;;6050586;23;20086;-92
2023/08/19 09:21:36;;;;;;;11.38;3.13;;;34.20;1.00;;;;;;6051564;23;20031;-91
2023/08/19 09:24:35;;;;;;;3.97;2.53;;;34.40;1.00;;;;;;6187988;23;20152;-92
2023/08/19 09:27:51;;;;;;;8.60;2.55;;;34.50;1.00;;;;;;6189649;23;20654;-91
2023/08/19 10:05:44;;;;;;;;;;;;;;;;;;;;;
2023/08/19 10:29:28;;;;;;;7.00;2.60;;;39.70;1.00;;;;;;6039070;23;20042;-91
2023/08/19 10:32:47;;;;;;;10.25;2.60;;;39.20;1.00;;;;;;6104959;23;20025;-93
2023/08/19 11:25:28;;;;;;;5.75;2.30;;;42.00;1.00;;;;;;6239713;22;20028;-90
2023/08/19 11:28:39;;;;;;;4.47;1.88;;;42.50;1.00;;;;;;6220301;23;20058;-90
2023/08/19 11:32:34;;;;;;;;;;;;;;;;;;;;;
2023/08/19 11:35:48;;;;;;;6.60;2.17;;;41.20;1.00;;;;;;6222542;23;20034;-91
2023/08/19 11:39:39;;;;;;;;;;;;;;;;;;;;;
2023/08/19 11:44:07;;;;;;;14.52;2.55;;;41.40;1.00;;;;;;6219175;23;20028;-89
2023/08/19 11:47:04;;;;;;;6.60;2.25;;;42.20;1.00;;;;;;6111235;23;20036;-91
2023/08/19 11:49:54;;;;;;;6.97;2.05;;;43.10;1.00;;;;;;6221475;22;20029;-90
2023/08/19 11:52:51;;;;;;;4.03;1.85;;;44.20;1.00;;;;;;6217344;23;20024;-88
2023/08/19 11:55:48;;;;;;;6.07;2.40;;;44.30;1.00;;;;;;6221554;22;20032;-88
2023/08/19 11:59:02;;;;;;;8.63;2.33;;;44.40;1.00;;;;;;6217921;23;20031;-89
2023/08/19 12:02:15;;;;;;;6.10;2.40;;;45.60;1.00;;;;;;6185406;23;20424;-90
2023/08/19 12:06:04;;;;;;;4.68;2.30;;;43.50;1.00;;;;;;6185675;23;20087;-88
2023/08/19 12:09:57;;;;;;;;;;;;;;;;;;;;;
2023/08/19 12:13:06;;;;;;;5.13;2.38;;;41.40;1.00;;;;;;6187774;23;20013;-91
2023/08/19 12:16:40;;;;;;;4.72;1.77;;;42.30;1.00;;;;;;6185299;23;20033;-94
2023/08/19 12:20:31;;;;;;;3.33;1.65;;;41.10;1.00;;;;;;6025088;23;20055;-91
2023/08/19 12:23:50;;;;;;;7.90;1.77;;;41.60;1.00;;;;;;6027424;23;20047;-89
2023/08/19 12:27:06;;;;;;;7.80;2.03;;;42.10;1.00;;;;;;5957770;23;20074;-91
2023/08/19 12:29:54;;;;;;;3.33;1.73;;;43.00;1.00;;;;;;5995614;23;20306;-92
2023/08/19 12:32:41;;;;;;;6.53;1.88;;;41.90;1.00;;;;;;6105951;23;20077;-89
2023/08/19 12:35:29;;;;;;;5.50;1.67;;;41.90;1.00;;;;;;6125164;23;20030;-90
2023/08/19 12:38:20;;;;;;;5.80;1.70;;;42.30;1.00;;;;;;6107629;23;20026;-90
2023/08/19 12:41:07;;;;;;;5.53;1.73;;;42.60;1.00;;;;;;6124688;23;20026;-89
2023/08/19 12:43:54;;;;;;;3.72;2.10;;;43.40;1.00;;;;;;6155979;23;20462;-89
2023/08/19 12:46:43;;;;;;;7.95;2.03;;;41.40;1.00;;;;;;6217965;23;20020;-90
2023/08/19 12:49:31;;;;;;;5.28;1.80;;;40.70;1.00;;;;;;6218264;23;20098;-92
2023/08/19 12:52:23;;;;;;;5.90;2.10;;;39.60;1.00;;;;;;6217633;23;20099;-90
2023/08/19 12:55:13;;;;;;;7.95;2.53;;;38.50;1.00;;;;;;6216850;23;20043;-93
2023/08/19 12:58:00;;;;;;;3.75;2.00;;;39.60;1.00;;;;;;6220803;22;20025;-92
2023/08/19 13:00:52;;;;;;;3.95;1.98;;;40.40;1.00;;;;;;6218595;23;20025;-91
2023/08/19 13:04:04;;;;;;;8.95;2.40;;;39.20;1.00;;;;;;6212014;23;20025;-94
2023/08/19 13:06:52;;;;;;;4.13;2.22;;;39.00;1.00;;;;;;6221986;22;20316;-88
2023/08/19 13:09:45;;;;;;;5.43;2.33;;;38.20;1.00;;;;;;6218667;23;20021;-90
2023/08/19 13:12:32;;;;;;;5.38;2.38;;;37.10;1.00;;;;;;6217977;23;20305;-90
2023/08/19 13:15:22;;;;;;;3.70;2.33;;;36.60;1.00;;;;;;6220875;23;20024;-91
2023/08/19 13:18:15;;;;;;;5.63;2.88;;;36.20;1.00;;;;;;6224281;23;20670;-94
2023/08/19 13:21:05;;;;;;;5.57;2.10;;;36.00;1.00;;;;;;6220686;23;20439;-91
2023/08/19 13:23:55;;;;;;;4.22;2.17;;;35.80;1.00;;;;;;6216712;23;20047;-90
2023/08/19 13:26:43;;;;;;;5.53;2.33;;;35.80;1.00;;;;;;6216508;23;20082;-90
2023/08/19 13:29:30;;;;;;;7.75;1.98;;;35.80;1.00;;;;;;6216876;23;20028;-91
2023/08/19 13:32:18;;;;;;;9.63;2.38;;;35.80;1.00;;;;;;6217552;23;20032;-93
2023/08/19 13:35:08;;;;;;;7.32;2.25;;;35.90;1.00;;;;;;6218580;23;20029;-92
2023/08/19 13:38:00;;;;;;;6.80;2.53;;;35.90;1.00;;;;;;6218485;23;20028;-89
2023/08/19 13:41:25;;;;;;;12.15;2.92;;;35.60;1.00;;;;;;6218557;23;20024;-92
2023/08/19 13:44:14;;;;;;;10.70;2.92;;;35.20;1.00;;;;;;6219178;23;20020;-93
2023/08/19 13:47:02;;;;;;;5.90;2.83;;;34.80;1.00;;;;;;6219464;23;20120;-91
2023/08/19 13:49:58;;;;;;;7.30;2.90;;;34.70;1.00;;;;;;6218961;23;20103;-92
2023/08/19 13:52:47;;;;;;;11.10;3.00;;;34.50;1.00;;;;;;6220129;23;20028;-93
2023/08/19 13:55:41;;;;;;;5.45;2.88;;;34.30;1.00;;;;;;6220475;23;20095;-94
2023/08/19 13:58:31;;;;;;;6.85;3.40;;;34.20;1.00;;;;;;6219051;23;20035;-93
2023/08/19 14:01:19;;;;;;;8.13;3.35;;;33.80;1.00;;;;;;6220827;22;20024;-92
2023/08/19 14:04:09;;;;;;;6.13;3.20;;;33.70;1.00;;;;;;6220104;23;20082;-94
2023/08/19 14:06:56;;;;;;;10.80;3.40;;;33.50;1.00;;;;;;6219934;23;20277;-91
2023/08/19 14:09:44;;;;;;;7.72;3.03;;;33.40;1.00;;;;;;6219181;23;20420;-91
2023/08/19 14:12:34;;;;;;;8.40;3.05;;;33.30;1.00;;;;;;6218816;23;20397;-93
2023/08/19 14:15:34;;;;;;;7.85;3.60;;;33.10;1.00;;;;;;6217026;23;20040;-91
2023/08/19 14:22:53;;;;;;;5.60;3.67;;;33.00;1.00;;;;;;6215438;23;20025;-91
2023/08/19 14:25:50;;;;;;;7.82;3.55;;;32.80;1.00;;;;;;6217308;23;20024;-92
2023/08/19 14:28:55;;;;;;;12.68;4.30;;;32.80;1.00;;;;;;6209953;23;20028;-93
2023/08/19 14:32:11;;;;;;;10.10;4.35;;;32.80;1.00;;;;;;6191960;23;20048;-91
2023/08/19 14:35:12;;;;;;;9.38;3.95;;;32.60;1.00;;;;;;6220050;23;20024;-91
2023/08/19 14:38:08;;;;;;;7.43;4.00;;;32.30;1.00;;;;;;6221606;23;20104;-93
2023/08/19 14:51:46;;;;;;;7.88;4.03;;;32.20;1.00;;;;;;5495038;21;19069158;-92
2023/08/19 14:54:35;;;;;;;8.15;3.55;;;32.30;1.00;;;;;;6290937;22;20024;-93
2023/08/19 14:57:32;;;;;;;5.90;4.00;;;32.40;1.00;;;;;;6301981;22;20028;-93
2023/08/19 15:00:20;;;;;;;8.48;4.00;;;32.40;1.00;;;;;;6301040;22;20079;-93
2023/08/19 15:03:13;;;;;;;8.35;4.22;;;32.40;1.00;;;;;;6310646;22;20034;-90
2023/08/19 15:06:04;;;;;;;8.95;3.88;;;32.30;1.00;;;;;;6309170;22;20087;-92
2023/08/19 15:08:53;;;;;;;6.78;3.83;;;32.20;1.00;;;;;;6287525;22;20024;-93
2023/08/19 15:11:44;;;;;;;7.28;3.88;;;31.80;1.00;;;;;;6304505;22;20023;-91
2023/08/19 15:14:44;;;;;;;6.53;4.05;;;31.50;1.00;;;;;;6294499;22;20496;-89
2023/08/19 15:17:35;;;;;;;6.95;3.90;;;31.40;1.00;;;;;;6303997;22;20071;-89
2023/08/19 15:20:26;;;;;;;6.53;4.25;;;31.20;1.00;;;;;;6301718;22;20063;-91
2023/08/19 15:23:16;;;;;;;8.73;4.40;;;31.50;1.00;;;;;;6307933;22;20087;-88
2023/08/19 15:26:03;;;;;;;10.25;3.90;;;31.80;1.00;;;;;;6306881;22;20015;-91
2023/08/19 15:28:50;;;;;;;8.50;3.40;;;32.10;1.00;;;;;;6308349;22;20011;-91
2023/08/19 15:31:38;;;;;;;8.23;3.78;;;32.50;1.00;;;;;;6302525;22;20080;-92
2023/08/19 15:34:27;;;;;;;7.43;3.67;;;32.70;1.00;;;;;;6294572;22;20023;-90
2023/08/19 15:37:17;;;;;;;12.50;3.50;;;32.70;1.00;;;;;;6290554;22;20032;-91
2023/08/19 15:40:05;;;;;;;9.93;3.67;;;33.10;1.00;;;;;;6286238;22;20516;-93
2023/08/19 15:43:06;;;;;;;;;;;;;;;;;;;;;
2023/08/19 15:46:09;;;;;;;;;;;;;;;;;;;;;
2023/08/19 15:49:12;;;;;;;10.85;3.58;;;35.30;1.00;;;;;;6286884;22;20051;-91
2023/08/19 15:52:08;;;;;;;12.23;3.53;;;35.20;1.00;;;;;;6282065;22;20026;-91
2023/08/19 15:55:16;;;;;;;11.05;3.60;;;34.50;1.00;;;;;;6277803;22;20019;-92
2023/08/19 15:58:23;;;;;;;9.13;3.45;;;33.40;1.00;;;;;;6280199;22;20019;-93
2023/08/19 16:01:33;;;;;;;5.47;3.50;;;32.40;1.00;;;;;;6282077;22;20029;-93
2023/08/19 16:04:28;;;;;;;7.97;4.15;;;31.50;1.00;;;;;;6279355;22;20024;-93
2023/08/19 16:07:55;;;;;;;6.60;3.92;;;31.00;1.00;;;;;;6276810;22;20038;-93
2023/08/19 16:11:01;;;;;;;7.47;4.35;;;30.80;1.00;;;;;;6279931;22;20042;-91
2023/08/19 16:14:03;;;;;;;11.35;3.83;;;30.70;1.00;;;;;;6280093;22;20039;-93
2023/08/19 16:16:50;;;;;;;6.25;3.67;;;30.50;1.00;;;;;;6280837;22;20438;-93
2023/08/19 16:19:44;;;;;;;5.25;3.80;;;30.30;1.00;;;;;;6280997;22;20360;-93
2023/08/19 16:22:40;;;;;;;6.53;3.70;;;30.10;1.00;;;;;;6279018;22;20418;-90
2023/08/19 16:25:48;;;;;;;7.53;3.63;;;29.80;1.00;;;;;;6278524;22;20078;-93
2023/08/19 16:28:59;;;;;;;6.88;3.78;;;29.40;1.00;;;;;;6281308;22;20262;-91
2023/08/19 16:32:11;;;;;;;7.25;4.15;;;29.20;1.00;;;;;;6279391;22;20058;-92
2023/08/19 16:35:02;;;;;;;7.85;4.03;;;28.90;1.00;;;;;;6279374;22;20024;-91
2023/08/19 16:38:03;;;;;;;10.85;3.65;;;28.70;1.00;;;;;;6278436;22;20027;-94
2023/08/19 16:41:11;;;;;;;11.38;4.40;;;28.60;1.00;;;;;;6278595;22;20020;-93
2023/08/19 16:44:09;;;;;;;8.23;3.85;;;28.50;1.00;;;;;;6280211;22;20113;-93
2023/08/19 16:47:20;;;;;;;8.82;4.07;;;28.50;1.00;;;;;;6279597;22;20098;-94
2023/08/19 16:50:08;;;;;;;8.65;4.25;;;28.50;1.00;;;;;;6278481;22;20379;-93
2023/08/19 16:52:55;;;;;;;4.90;3.90;;;28.40;1.00;;;;;;6279625;22;20110;-91
2023/08/19 16:55:43;;;;;;;7.45;4.05;;;28.40;1.00;;;;;;6284269;22;20028;-92
2023/08/19 16:58:48;;;;;;;5.93;3.63;;;28.30;1.00;;;;;;6278521;22;20039;-93
2023/08/19 17:01:43;;;;;;;9.07;4.05;;;28.30;1.00;;;;;;6278834;22;20116;-93
2023/08/19 17:04:33;;;;;;;7.25;3.97;;;28.20;1.00;;;;;;6279914;22;20027;-92
2023/08/19 17:07:22;;;;;;;6.40;3.80;;;28.10;1.00;;;;;;6277445;22;20023;-89
2023/08/19 17:10:14;;;;;;;10.95;4.07;;;28.10;1.00;;;;;;6277969;22;20024;-89
2023/08/19 17:13:02;;;;;;;8.93;3.80;;;27.90;1.00;;;;;;6277696;22;20046;-91
2023/08/19 17:15:57;;;;;;;7.50;3.80;;;27.90;1.00;;;;;;6277153;22;20027;-89
2023/08/19 17:18:45;;;;;;;6.65;3.92;;;27.90;1.00;;;;;;6276476;22;20727;-88
2023/08/19 17:21:32;;;;;;;8.75;3.70;;;27.70;1.00;;;;;;6277747;22;20024;-89
2023/08/19 17:24:20;;;;;;;8.55;3.67;;;27.60;1.00;;;;;;6276977;22;20042;-87
2023/08/19 17:27:10;;;;;;;4.57;3.78;;;27.50;1.00;;;;;;6278281;22;20083;-89
2023/08/19 17:29:58;;;;;;;9.82;3.50;;;27.40;1.00;;;;;;6275934;22;20085;-88
2023/08/19 17:32:45;;;;;;;8.73;4.47;;;27.30;1.00;;;;;;6276050;22;20024;-87
2023/08/19 17:35:34;;;;;;;7.82;3.95;;;27.20;1.00;;;;;;6275977;22;20102;-89
2023/08/19 17:38:22;;;;;;;8.00;4.10;;;27.10;1.00;;;;;;6278599;22;20084;-88
2023/08/19 17:41:09;;;;;;;10.45;4.63;;;27.00;1.00;;;;;;6276599;22;20105;-90
2023/08/19 17:43:59;;;;;;;9.80;4.47;;;26.80;1.00;;;;;;6277210;22;20051;-89
2023/08/19 17:46:49;;;;;;;6.25;4.30;;;26.70;1.00;;;;;;6279935;22;20024;-91
2023/08/19 17:50:03;;;;;;;7.50;3.50;;;26.60;1.00;;;;;;6279329;22;20110;-92
2023/08/19 17:52:50;;;;;;;6.90;4.10;;;26.50;1.00;;;;;;6279020;22;20081;-90
2023/08/19 17:55:38;;;;;;;7.15;4.38;;;26.40;1.00;;;;;;6280777;22;20028;-88
2023/08/19 17:58:31;;;;;;;6.28;4.20;;;26.40;1.00;;;;;;6275495;22;20027;-87
2023/08/19 18:01:18;;;;;;;5.82;4.38;;;26.30;1.00;;;;;;6277900;22;20111;-87
2023/08/19 18:04:06;;;;;;;5.45;4.18;;;26.30;1.00;;;;;;6282127;22;20326;-88
2023/08/19 18:06:56;;;;;;;4.68;4.00;;;26.20;1.00;;;;;;6280809;22;20023;-89
2023/08/19 18:09:43;;;;;;;5.20;3.92;;;26.10;1.00;;;;;;6277053;22;20023;-88
2023/08/19 18:12:32;;;;;;;7.65;4.05;;;26.00;11.30;;;;;;6278329;22;20386;-89
2023/08/19 18:15:19;;;;;;;9.38;4.47;;;26.00;21.40;;;;;;6277782;22;20043;-89
2023/08/19 18:18:07;;;;;;;10.75;3.72;;;25.80;24.60;;;;;;6277991;22;20023;-88
2023/08/19 18:20:54;;;;;;;7.63;4.50;;;25.80;37.10;;;;;;6277553;22;20035;-90
2023/08/19 18:23:44;;;;;;;6.82;4.57;;;25.70;83.30;;;;;;6274532;22;20335;-88
2023/08/19 18:26:33;;;;;;;9.95;5.47;;;25.60;96.30;;;;;;6278366;22;20031;-89
2023/08/19 18:29:20;;;;;;;7.00;4.60;;;25.40;99.90;;;;;;6277557;22;20023;-88
2023/08/19 18:32:07;;;;;;;6.55;4.53;;;25.30;99.90;;;;;;6278473;22;20066;-89
2023/08/19 18:34:55;;;;;;;7.88;4.78;;;25.20;99.90;;;;;;6279288;22;20023;-90
2023/08/19 18:37:45;;;;;;;7.75;4.93;;;25.20;99.90;;;;;;6279544;22;20028;-87